createdAt,value
2018-06-23T00:00:37.590Z,3.90
2018-06-23T00:03:07.764Z,4.23
2018-06-23T00:05:36.619Z,5.10
2018-06-23T00:08:05.621Z,4.47
2018-06-23T00:10:34.259Z,4.50
2018-06-23T00:13:03.121Z,3.90
2018-06-23T00:15:32.232Z,4.17
2018-06-23T00:18:01.143Z,5.00
2018-06-23T00:20:29.997Z,4.53
2018-06-23T00:23:00.697Z,4.07
2018-06-23T00:25:48.688Z,5.27
2018-06-23T00:28:29.878Z,4.60
2018-06-23T00:30:58.847Z,4.70
2018-06-23T00:33:28.573Z,4.43
2018-06-23T00:35:57.841Z,5.03
2018-06-23T00:38:26.735Z,4.93
2018-06-23T00:40:55.622Z,4.37
2018-06-23T00:46:42.266Z,4.53
2018-06-23T00:49:24.976Z,4.50
2018-06-23T00:51:53.861Z,4.87
2018-06-23T00:54:22.770Z,5.30
2018-06-23T00:56:51.666Z,5.00
2018-06-23T00:59:31.915Z,4.33
2018-06-23T01:02:00.812Z,4.83
2018-06-23T01:04:29.769Z,5.80
2018-06-23T01:06:58.770Z,4.90
2018-06-23T01:09:27.657Z,5.60
2018-06-23T01:11:56.564Z,4.90
2018-06-23T01:14:25.541Z,4.97
2018-06-23T01:16:54.456Z,4.80
2018-06-23T01:22:34.182Z,3.83
2018-06-23T01:25:04.061Z,4.53
2018-06-23T01:27:33.256Z,4.47
2018-06-23T01:30:01.900Z,5.00
2018-06-23T01:32:30.680Z,4.90
2018-06-23T01:34:59.547Z,4.73
2018-06-23T01:37:34.576Z,4.23
2018-06-23T01:40:16.636Z,4.50
2018-06-23T01:42:46.515Z,4.90
2018-06-23T01:45:15.116Z,5.70
2018-06-23T01:47:43.635Z,4.83
2018-06-23T01:50:12.172Z,4.33
2018-06-23T01:52:40.699Z,4.67
2018-06-23T01:55:09.500Z,4.83
2018-06-23T01:57:38.135Z,4.60
2018-06-23T02:00:06.716Z,4.97
2018-06-23T02:02:35.448Z,5.70
2018-06-23T02:05:04.384Z,4.90
2018-06-23T02:07:33.199Z,5.37
2018-06-23T02:10:01.944Z,4.80
2018-06-23T02:12:30.811Z,5.47
2018-06-23T02:15:04.869Z,5.10
2018-06-23T02:17:38.924Z,4.50
2018-06-23T02:20:13.124Z,5.20
2018-06-23T02:22:47.096Z,4.53
2018-06-23T02:25:28.384Z,5.17
2018-06-23T02:45:36.472Z,4.97
2018-06-23T02:48:05.379Z,4.90
2018-06-23T02:50:34.293Z,5.53
2018-06-23T02:53:03.177Z,4.50
2018-06-23T02:55:32.080Z,4.73
2018-06-23T02:58:16.828Z,4.63
2018-06-23T03:00:52.155Z,4.43
2018-06-23T03:03:21.126Z,4.63
2018-06-23T03:05:50.110Z,4.03
2018-06-23T03:08:19.087Z,4.23
2018-06-23T03:10:48.032Z,4.20
2018-06-23T03:13:16.943Z,4.77
2018-06-23T03:19:08.354Z,3.83
2018-06-23T03:21:37.272Z,4.80
2018-06-23T03:24:06.212Z,5.47
2018-06-23T03:26:35.105Z,4.73
2018-06-23T03:29:04.239Z,5.27
2018-06-23T03:31:33.136Z,4.90
2018-06-23T03:34:02.022Z,4.67
2018-06-23T03:39:15.124Z,4.73
2018-06-23T03:41:44.000Z,4.40
2018-06-23T03:44:12.970Z,4.70
2018-06-23T03:46:42.323Z,5.20
2018-06-23T03:49:11.209Z,4.90
2018-06-23T03:52:02.288Z,5.20
2018-06-23T04:00:24.920Z,5.90
2018-06-23T04:02:53.670Z,5.90
2018-06-23T04:05:22.531Z,6.37
2018-06-23T04:07:51.529Z,5.50
2018-06-23T04:10:20.393Z,5.40
2018-06-23T04:12:49.052Z,5.73
2018-06-23T04:15:17.576Z,4.93
2018-06-23T04:17:46.334Z,6.33
2018-06-23T04:20:14.981Z,6.07
2018-06-23T04:22:43.727Z,6.00
2018-06-23T04:25:12.373Z,5.00
2018-06-23T04:27:40.900Z,5.50
2018-06-23T04:30:09.918Z,5.83
2018-06-23T04:38:45.357Z,5.97
2018-06-23T04:41:14.244Z,5.40
2018-06-23T04:43:43.124Z,5.27
2018-06-23T04:46:12.012Z,4.70
2018-06-23T05:00:50.673Z,4.73
2018-06-23T05:09:21.514Z,5.00
2018-06-23T05:11:50.063Z,5.30
2018-06-23T05:14:18.823Z,5.63
2018-06-23T05:16:47.744Z,5.20
2018-06-23T05:19:16.481Z,6.57
2018-06-23T05:42:34.356Z,6.77
2018-06-23T06:08:33.576Z,5.50
2018-06-23T06:11:12.433Z,5.50
2018-06-23T06:19:47.588Z,5.37
2018-06-23T06:22:16.565Z,5.10
2018-06-23T06:27:48.594Z,6.07
2018-06-23T06:45:17.710Z,5.90
2018-06-23T06:47:51.644Z,5.00
2018-06-23T06:50:20.519Z,5.97
2018-06-23T06:55:56.301Z,5.40
2018-06-23T06:58:25.160Z,5.43
2018-06-23T07:00:54.094Z,5.50
2018-06-23T07:03:23.006Z,5.10
2018-06-23T07:05:51.880Z,5.20
2018-06-23T07:08:20.592Z,5.47
2018-06-23T07:10:49.337Z,4.57
2018-06-23T07:13:18.216Z,4.77
2018-06-23T07:15:47.907Z,5.00
2018-06-23T07:27:27.307Z,5.40
2018-06-23T07:29:56.212Z,4.70
2018-06-23T07:32:25.077Z,4.37
2018-06-23T07:34:54.207Z,4.90
2018-06-23T07:37:24.023Z,4.77
2018-06-23T07:39:54.196Z,4.93
2018-06-23T07:42:23.911Z,4.97
2018-06-23T07:44:55.173Z,4.47
2018-06-23T07:47:24.967Z,4.57
2018-06-23T07:49:56.086Z,4.17
2018-06-23T07:52:26.486Z,4.50
2018-06-23T07:54:56.106Z,4.20
2018-06-23T07:57:26.059Z,4.33
2018-06-23T07:59:57.013Z,4.50
2018-06-23T08:02:27.358Z,4.50
2018-06-23T08:04:58.277Z,3.87
2018-06-23T08:07:28.886Z,4.37
2018-06-23T08:09:59.222Z,4.40
2018-06-23T08:12:29.034Z,4.57
2018-06-23T08:14:58.398Z,4.33
2018-06-23T08:17:29.147Z,4.50
2018-06-23T08:19:58.490Z,3.93
2018-06-23T08:22:28.342Z,4.20
2018-06-23T08:24:59.535Z,4.30
2018-06-23T08:27:30.099Z,4.00
2018-06-23T08:29:59.663Z,3.63
2018-06-23T08:32:30.186Z,3.70
2018-06-23T08:34:59.619Z,3.53
2018-06-23T08:37:30.766Z,3.73
2018-06-23T08:40:00.229Z,3.80
2018-06-23T08:42:30.051Z,3.97
2018-06-23T08:45:00.387Z,3.47
2018-06-23T08:47:29.730Z,3.27
2018-06-23T08:50:01.098Z,3.40
2018-06-23T08:52:30.642Z,3.30
2018-06-23T08:55:00.450Z,3.37
2018-06-23T08:57:30.615Z,3.57
2018-06-23T09:00:00.692Z,3.50
2018-06-23T09:02:31.062Z,4.27
2018-06-23T09:05:00.695Z,3.73
2018-06-23T09:07:31.054Z,4.07
2018-06-23T09:10:01.715Z,4.00
2018-06-23T09:12:32.070Z,3.80
2018-06-23T09:15:02.410Z,3.80
2018-06-23T09:17:33.103Z,3.53
2018-06-23T09:20:03.250Z,3.73
2018-06-23T09:22:32.677Z,4.07
2018-06-23T09:25:03.042Z,3.73
2018-06-23T09:27:33.999Z,3.73
2018-06-23T09:30:03.630Z,3.57
2018-06-23T09:32:34.122Z,4.13
2018-06-23T09:35:03.954Z,3.40
2018-06-23T09:37:34.194Z,3.43
2018-06-23T09:40:03.673Z,3.77
2018-06-23T09:42:34.205Z,3.70
2018-06-23T09:45:05.294Z,3.60
2018-06-23T09:47:35.732Z,3.40
2018-06-23T09:50:06.047Z,3.17
2018-06-23T09:52:36.118Z,3.63
2018-06-23T09:55:07.077Z,3.30
2018-06-23T09:57:36.789Z,3.30
2018-06-23T10:00:07.534Z,3.20
2018-06-23T10:02:37.250Z,3.10
2018-06-23T10:05:06.690Z,3.20
2018-06-23T10:07:37.319Z,3.20
2018-06-23T10:10:07.779Z,3.40
2018-06-23T10:12:37.318Z,3.33
2018-06-23T10:15:08.390Z,3.43
2018-06-23T10:17:38.738Z,3.20
2018-06-23T10:20:08.278Z,3.30
2018-06-23T10:22:38.025Z,3.03
2018-06-23T10:25:08.070Z,2.80
2018-06-23T10:27:37.626Z,2.80
2018-06-23T10:30:08.711Z,3.10
2018-06-23T10:32:40.224Z,3.27
2018-06-23T10:35:11.271Z,3.10
2018-06-23T10:37:41.959Z,3.13
2018-06-23T10:40:11.978Z,2.80
2018-06-23T10:42:42.878Z,2.80
2018-06-23T10:45:12.962Z,2.60
2018-06-23T10:47:42.947Z,2.57
2018-06-23T10:50:13.487Z,2.30
2018-06-23T10:52:44.134Z,2.23
2018-06-23T10:55:13.638Z,2.17
2018-06-23T10:57:44.316Z,2.40
2018-06-23T11:00:14.823Z,2.60
2018-06-23T11:02:44.910Z,2.93
2018-06-23T11:05:13.934Z,2.73
2018-06-23T11:07:43.022Z,2.30
2018-06-23T11:10:12.672Z,2.70
2018-06-23T11:12:43.577Z,3.00
2018-06-23T11:15:14.218Z,2.67
2018-06-23T11:17:43.594Z,2.63
2018-06-23T11:20:14.542Z,2.27
2018-06-23T11:22:45.522Z,3.00
2018-06-23T11:25:16.074Z,3.00
2018-06-23T11:27:46.782Z,2.70
2018-06-23T11:30:16.302Z,2.53
2018-06-23T11:32:45.437Z,2.70
2018-06-23T11:35:15.622Z,2.47
2018-06-23T11:37:45.670Z,2.50
2018-06-23T11:40:15.243Z,2.40
2018-06-23T11:42:45.486Z,2.20
2018-06-23T11:45:15.423Z,2.70
2018-06-23T11:47:46.870Z,2.70
2018-06-23T11:50:16.994Z,2.80
2018-06-23T11:52:47.881Z,3.07
2018-06-23T11:55:17.453Z,3.20
2018-06-23T11:57:49.154Z,2.80
2018-06-23T12:00:18.557Z,4.40
2018-06-23T12:02:48.378Z,3.00
2018-06-23T12:05:18.822Z,3.00
2018-06-23T12:07:50.107Z,2.93
2018-06-23T12:10:20.275Z,2.93
2018-06-23T12:12:51.177Z,2.83
2018-06-23T12:15:21.855Z,2.47
2018-06-23T12:17:52.062Z,2.63
2018-06-23T12:20:21.934Z,3.10
2018-06-23T12:22:52.186Z,2.90
2018-06-23T12:25:22.058Z,3.17
2018-06-23T12:27:51.852Z,3.87
2018-06-23T12:30:22.585Z,3.50
2018-06-23T12:32:52.419Z,3.70
2018-06-23T12:35:22.359Z,3.33
2018-06-23T12:37:53.159Z,3.80
2018-06-23T12:40:23.065Z,3.73
2018-06-23T12:42:53.319Z,3.30
2018-06-23T12:45:22.966Z,3.90
2018-06-23T12:47:53.160Z,3.63
2018-06-23T12:50:23.433Z,3.33
2018-06-23T12:52:53.642Z,3.40
2018-06-23T12:55:23.343Z,3.30
2018-06-23T12:57:53.510Z,3.87
2018-06-23T13:00:24.722Z,3.50
2018-06-23T13:02:54.923Z,3.60
2018-06-23T13:05:24.651Z,3.77
2018-06-23T13:07:55.891Z,3.17
2018-06-23T13:10:24.934Z,3.77
2018-06-23T13:12:55.241Z,3.80
2018-06-23T13:15:26.302Z,3.23
2018-06-23T13:17:56.883Z,3.40
2018-06-23T13:20:27.381Z,3.43
2018-06-23T13:22:57.551Z,3.27
2018-06-23T13:25:27.531Z,3.17
2018-06-23T13:27:57.230Z,3.40
2018-06-23T13:30:27.164Z,3.53
2018-06-23T13:32:57.619Z,2.97
2018-06-23T13:35:27.469Z,3.17
2018-06-23T13:37:57.352Z,2.83
2018-06-23T13:40:27.722Z,2.50
2018-06-23T13:42:57.850Z,2.50
2018-06-23T13:45:28.125Z,2.60
2018-06-23T13:47:57.811Z,2.70
2018-06-23T13:50:27.178Z,2.53
2018-06-23T13:52:57.079Z,2.83
2018-06-23T13:55:26.270Z,2.57
2018-06-23T13:57:56.238Z,2.80
2018-06-23T14:00:27.809Z,2.70
2018-06-23T14:02:57.290Z,2.70
2018-06-23T14:05:26.776Z,2.63
2018-06-23T14:07:57.118Z,2.60
2018-06-23T14:10:26.440Z,2.60
2018-06-23T14:12:56.079Z,2.93
2018-06-23T14:15:27.055Z,2.40
2018-06-23T14:17:57.351Z,2.97
2018-06-23T14:20:27.931Z,2.80
2018-06-23T14:22:57.734Z,2.70
2018-06-23T14:25:27.079Z,2.67
2018-06-23T14:27:56.632Z,2.77
2018-06-23T14:30:26.302Z,2.50
2018-06-23T14:32:55.667Z,2.67
2018-06-23T14:35:24.975Z,2.20
2018-06-23T14:37:54.354Z,2.13
2018-06-23T14:40:24.177Z,2.60
2018-06-23T14:42:54.262Z,2.07
2018-06-23T14:45:25.125Z,2.30
2018-06-23T14:47:55.193Z,2.30
2018-06-23T14:50:24.554Z,2.30
2018-06-23T14:52:54.990Z,2.60
2018-06-23T14:55:25.043Z,2.20
2018-06-23T14:57:54.938Z,2.73
2018-06-23T15:00:25.018Z,2.53
2018-06-23T15:02:54.662Z,2.53
2018-06-23T15:05:25.060Z,3.03
2018-06-23T15:07:56.240Z,2.60
2018-06-23T15:10:37.163Z,2.37
2018-06-23T15:13:14.603Z,2.77
2018-06-23T15:15:45.408Z,5.23
2018-06-23T15:18:15.829Z,3.00
2018-06-23T15:20:46.952Z,2.20
2018-06-23T15:23:17.210Z,2.33
2018-06-23T15:25:47.975Z,2.40
2018-06-23T15:28:18.599Z,2.40
2018-06-23T15:30:48.307Z,2.07
2018-06-23T15:33:19.926Z,2.70
2018-06-23T15:35:49.602Z,2.17
2018-06-23T15:38:19.283Z,2.40
2018-06-23T15:40:48.604Z,2.50
2018-06-23T15:43:19.750Z,2.80
2018-06-23T15:45:49.374Z,2.50
2018-06-23T15:48:20.390Z,2.70
2018-06-23T15:50:50.475Z,2.50
2018-06-23T15:53:20.495Z,2.47
2018-06-23T15:55:50.027Z,2.23
2018-06-23T15:58:20.273Z,2.80
2018-06-23T16:00:50.065Z,2.77
2018-06-23T16:03:19.578Z,2.50
2018-06-23T16:05:49.366Z,2.60
2018-06-23T16:08:19.128Z,2.60
2018-06-23T16:10:49.326Z,2.30
2018-06-23T16:13:20.078Z,2.10
2018-06-23T16:15:49.546Z,2.20
2018-06-23T16:18:20.014Z,2.20
2018-06-23T16:20:50.005Z,2.47
2018-06-23T16:23:20.335Z,2.40
2018-06-23T16:25:50.638Z,2.20
2018-06-23T16:28:20.567Z,2.40
2018-06-23T16:30:50.434Z,2.37
2018-06-23T16:33:20.487Z,2.63
2018-06-23T16:35:50.334Z,2.70
2018-06-23T16:38:20.067Z,2.37
2018-06-23T16:40:50.194Z,2.40
2018-06-23T16:43:20.656Z,2.40
2018-06-23T16:45:51.202Z,2.57
2018-06-23T16:48:22.411Z,2.33
2018-06-23T16:50:52.721Z,3.33
2018-06-23T16:53:22.622Z,2.70
2018-06-23T16:55:52.350Z,2.47
2018-06-23T16:58:21.826Z,2.53
2018-06-23T17:00:50.880Z,2.50
2018-06-23T17:03:20.342Z,2.80
2018-06-23T17:05:51.519Z,2.67
2018-06-23T17:08:23.511Z,2.57
2018-06-23T17:10:53.711Z,2.50
2018-06-23T17:13:23.310Z,2.33
2018-06-23T17:15:53.247Z,2.80
2018-06-23T17:18:23.352Z,2.80
2018-06-23T17:20:54.381Z,3.07
2018-06-23T17:23:24.796Z,3.13
2018-06-23T17:25:53.965Z,2.37
2018-06-23T17:28:24.102Z,2.80
2018-06-23T17:30:53.859Z,2.70
2018-06-23T17:33:25.229Z,5.53
2018-06-23T17:35:54.610Z,2.83
2018-06-23T17:38:25.199Z,2.67
2018-06-23T17:40:55.313Z,3.07
2018-06-23T17:43:26.283Z,2.47
2018-06-23T17:45:56.278Z,2.70
2018-06-23T17:48:26.019Z,2.43
2018-06-23T17:50:55.754Z,2.33
2018-06-23T17:53:27.598Z,2.47
2018-06-23T17:55:57.958Z,2.73
2018-06-23T17:58:28.459Z,2.40
2018-06-23T18:00:59.336Z,2.37
2018-06-23T18:03:29.921Z,3.30
2018-06-23T18:06:01.177Z,2.90
2018-06-23T18:08:32.171Z,2.60
2018-06-23T18:11:01.921Z,2.57
2018-06-23T18:13:32.773Z,2.70
2018-06-23T18:16:02.482Z,2.70
2018-06-23T18:18:32.071Z,2.43
2018-06-23T18:21:02.419Z,2.60
2018-06-23T18:23:34.218Z,2.83
2018-06-23T18:26:04.367Z,2.60
2018-06-23T18:28:34.187Z,2.67
2018-06-23T18:31:04.990Z,3.00
2018-06-23T18:33:35.382Z,2.80
2018-06-23T18:36:05.215Z,2.50
2018-06-23T18:38:34.655Z,2.43
2018-06-23T18:41:04.206Z,3.40
2018-06-23T18:43:33.402Z,2.60
2018-06-23T18:46:02.462Z,2.80
2018-06-23T18:48:32.982Z,2.90
2018-06-23T18:51:02.079Z,2.77
2018-06-23T18:53:32.191Z,2.80
2018-06-23T18:56:02.655Z,2.70
2018-06-23T18:58:34.146Z,2.80
2018-06-23T19:01:04.307Z,3.30
2018-06-23T19:03:34.010Z,3.10
2018-06-23T19:06:05.030Z,3.10
2018-06-23T19:08:35.772Z,2.53
2018-06-23T19:11:06.786Z,3.23
2018-06-23T19:13:36.367Z,2.90
2018-06-23T19:16:06.263Z,2.90
2018-06-23T19:18:36.134Z,3.50
2018-06-23T19:21:05.527Z,2.50
2018-06-23T19:23:36.060Z,2.80
2018-06-23T19:26:06.309Z,2.87
2018-06-23T19:28:36.942Z,2.70
2018-06-23T19:31:08.611Z,2.70
2018-06-23T19:33:38.495Z,2.80
2018-06-23T19:36:08.090Z,2.90
2018-06-23T19:38:37.814Z,3.03
2018-06-23T19:41:18.666Z,2.70
2018-06-23T19:43:49.394Z,3.30
2018-06-23T19:46:18.750Z,3.43
2018-06-23T19:48:47.902Z,4.27
2018-06-23T19:51:17.840Z,3.83
2018-06-23T19:53:48.813Z,3.47
2018-06-23T19:56:19.819Z,3.73
2018-06-23T19:58:50.025Z,3.37
2018-06-23T20:01:19.381Z,3.50
2018-06-23T20:03:48.442Z,3.77
2018-06-23T20:06:19.371Z,3.90
2018-06-23T20:08:48.718Z,3.67
2018-06-23T20:11:19.154Z,3.60
2018-06-23T20:13:48.414Z,3.40
2018-06-23T20:16:17.439Z,3.63
2018-06-23T20:18:47.926Z,3.73
2018-06-23T20:21:18.743Z,3.60
2018-06-23T20:23:49.126Z,3.60
2018-06-23T20:26:18.578Z,4.07
2018-06-23T20:28:49.075Z,3.77
2018-06-23T20:31:19.166Z,3.60
2018-06-23T20:33:48.986Z,3.20
2018-06-23T20:36:19.858Z,3.30
2018-06-23T20:38:49.719Z,3.40
2018-06-23T20:41:19.588Z,3.57
2018-06-23T20:43:51.159Z,3.20
2018-06-23T20:46:21.151Z,3.10
2018-06-23T20:48:51.543Z,2.80
2018-06-23T20:51:20.814Z,3.87
2018-06-23T20:53:50.920Z,3.87
2018-06-23T20:56:20.474Z,4.30
2018-06-23T20:58:51.373Z,4.53
2018-06-23T21:01:21.619Z,4.40
2018-06-23T21:03:51.878Z,3.57
2018-06-23T21:06:21.203Z,3.83
2018-06-23T21:08:51.387Z,5.27
2018-06-23T21:11:21.254Z,4.57
2018-06-23T21:13:50.490Z,4.40
2018-06-23T21:16:20.843Z,3.93
2018-06-23T21:18:51.195Z,4.43
2018-06-23T21:21:22.111Z,4.47
2018-06-23T21:23:51.542Z,4.40
2018-06-23T21:26:23.189Z,4.50
2018-06-23T21:28:53.926Z,4.60
2018-06-23T21:31:24.266Z,5.63
2018-06-23T21:33:54.550Z,5.50
2018-06-23T21:36:24.207Z,6.30
2018-06-23T21:38:54.674Z,6.13
2018-06-23T21:41:24.446Z,4.97
2018-06-23T21:43:54.948Z,5.50
2018-06-23T21:46:25.831Z,5.70
2018-06-23T21:48:56.791Z,5.17
2018-06-23T21:51:27.251Z,6.03
2018-06-23T21:53:56.998Z,5.70
2018-06-23T21:56:26.899Z,5.30
2018-06-23T21:58:55.974Z,5.80
2018-06-23T22:01:26.817Z,5.03
2018-06-23T22:03:56.614Z,5.53
2018-06-23T22:06:26.710Z,5.00
2018-06-23T22:08:58.038Z,4.97
2018-06-23T22:11:27.646Z,5.30
2018-06-23T22:13:57.887Z,5.30
2018-06-23T22:16:27.426Z,5.10
2018-06-23T22:18:57.759Z,5.10
2018-06-23T22:21:27.934Z,4.83
2018-06-23T22:23:57.750Z,4.30
2018-06-23T22:26:27.959Z,4.63
2018-06-23T22:28:57.697Z,5.10
2018-06-23T22:31:27.963Z,5.17
2018-06-23T22:33:58.668Z,5.33
2018-06-23T22:36:28.947Z,4.73
2018-06-23T22:38:59.069Z,4.23
2018-06-23T22:41:29.284Z,4.27
2018-06-23T22:43:59.423Z,4.53
2018-06-23T22:46:30.807Z,3.87
2018-06-23T22:49:02.390Z,3.83
2018-06-23T22:51:32.682Z,4.10
2018-06-23T22:54:03.630Z,3.87
2018-06-23T22:56:33.554Z,3.80
2018-06-23T22:59:03.695Z,4.00
2018-06-23T23:01:34.187Z,3.57
2018-06-23T23:04:04.395Z,3.53
2018-06-23T23:06:33.249Z,3.87
2018-06-23T23:09:03.086Z,3.70
2018-06-23T23:11:33.771Z,3.70
2018-06-23T23:14:03.463Z,3.90
2018-06-23T23:16:33.431Z,3.90
2018-06-23T23:19:03.386Z,3.50
2018-06-23T23:21:33.326Z,3.80
2018-06-23T23:24:03.179Z,3.63
2018-06-23T23:26:32.815Z,3.67
2018-06-23T23:29:02.531Z,3.63
2018-06-23T23:31:31.946Z,3.77
2018-06-23T23:34:01.875Z,3.57
2018-06-23T23:36:31.302Z,3.60
2018-06-23T23:39:01.358Z,3.63
2018-06-23T23:41:31.225Z,3.60
2018-06-23T23:44:00.739Z,4.07
2018-06-23T23:46:30.922Z,3.87
2018-06-23T23:49:00.474Z,3.97
2018-06-23T23:51:29.964Z,3.90
2018-06-23T23:54:00.246Z,4.20
2018-06-23T23:56:30.202Z,4.20
2018-06-23T23:59:00.314Z,4.00
